aviador You're here:

LFPO Decoded Metar

PARIS ORLY in FRANCE
Report Time2018-05-23 20:30:00
UTC Time2018-05-23 20:47:49
Flight Rules vfr VFR
Wind010° at 06 kt
W.Decomp.*RWY 02: 5.9 kt HW 0.9 kt LCW
RWY 06: 3.9 kt HW 4.5 kt LCW
RWY 08: 2.2 kt HW 5.6 kt LCW
W.Rank010° ranks 19
Current wind is below 010° avg. (6.9)
Visibility9000 m
Phenomena:N/A
Clouds:Scattered 024 Hf
Broken 030 Hf
Expected CloudBase > 1,600 ft AGL from Temp-Dew spread
Ceiling3,000 ft
Temp18°C (ISA +4)
Dew Point14°C (78% RH)
AAT17.1°C
QNH1018 hPa
Density Alt787 ft
Elevation315 ft
Report Wrong Elevation
Raw Report
METAR LFPO 232030Z 01006KT 9000 SCT024 BKN030 18/14 Q1018 TEMPO SCT040TCU=

Extra information for LFPO:More info

Metar Taf Metar & Taf Last 4 Metars F.Rules Stats Wind Profile Meteogram Temp Stats Airport Information Weather charts Add Link Nearby VenuesMetar ALERT Operation Metar Decoded Social comments